Share

Hague, ND (58542)

Heier Farm (KNDHAGUE2) Elev 1850 ft | 46.00 °N, 100.05 °W | Change Station

Current weather conditions updated 1 minute ago

Mostly Cloudy
Mostly Cloudy
32.5 °F
Feels Like 23 °F
N
13.5
Wind Variable Wind from ESE
Sunrise 6:48 AM
Sunset 8:31 PM
Moon Waning Gibbous

Today is forecast to be Much Warmer than yesterday.

Pressure 30.03 in
Visibility 10.0 miles
Clouds Mostly Cloudy 12000 ft
Windchill 23 °F
Dew Point 22 °F
Humidity 66%
Rainfall 0.00 in
Snow Depth Not available.
UV 0 out of 16
Pollen 9.70 out of 12
Air Quality Not available.
Flu Activity Sporadic
METAR K7L2 181115Z AUTO 12016G22KT 10SM BKN120 00/M05 A3003 RMK AO2 PWINO PNO

More Conditions Fewer Conditions

Pressure 30.03 in
Visibility 10.0 miles
Clouds Mostly Cloudy 12000 ft
Windchill 23 °F
Dew Point 22 °F
Humidity 66%
Rainfall 0.00 in
Snow Depth Not available.
UV 0 out of 16
Pollen 9.70 out of 12
Air Quality Not available.
Flu Activity Sporadic
METAR K7L2 181115Z AUTO 12016G22KT 10SM BKN120 00/M05 A3003 RMK AO2 PWINO PNO

More Conditions Fewer Conditions

10-Day Forecast

Almanac

Astronomy

Apr. 18, 2014 Rise Set
Actual Time 6:48 AM CDT 8:31 PM CDT
Civil Twilight 6:16 AM CDT 9:02 PM CDT
Nautical Twilight 5:38 AM CDT 9:41 PM CDT
Astronomical Twilight 4:56 AM CDT 10:23 PM CDT
Moon No Moon Rise 9:04 AM CDT
Length of Visible Light 14h 46m
Length of Day
13h 42m
Tomorrow will be 3m 4s longer.
Waning Gibbous, 88% of the Moon is Illuminated
Today
Waning Gibbous
Apr 22
Last Quarter
Apr 29
New
May 6
First Quarter
May 14
Full

Today's Extremes

State Highs State Lows

Community

  • SUNRISE THROUGH THE TREES.
    SUNRISE THROUGH THE TREES.
  • Dog Wood Blossoms
    Dog Wood Blossoms
  • Morning Light
    Morning Light
  • New Day
    New Day
  • Lake Michigan Sunrise
    Lake Michigan Sunrise

WunderPhotos

Upload Photos

1,702,313 photos uploaded!

Nearby

Snow Depth

Station Depth Elevation
No new snow has been reported.

Coastal Water Temperatures

Place Temperature
No Stations Reporting

Earthquake Activity

City Distance Mag. Time & Date
No recent earthquake activity has been reported nearby.
Minimum magnitude displayed is 2.5.

Nearby Weather Stations

Station Location Temp. Windchill Dew Point Humidity Wind Precip. Elev Updated Type
Heier Farm, Hague, ND 32.5 °F 23 °F 22 °F 66% ESE  at  13.5 mph - / hr 1850 ft 6:23 AM CDT Normal
Strasburg, ND, Strasburg, ND 32.8 °F 25 °F 23 °F 66% SE  at  9.0 mph 0.00 in / hr 1808 ft 6:20 AM CDT Normal

Show More Stations Show Fewer Stations

What do you think?

We're not finished. Please let us know what you like, what you don't like, and what you are still missing.